sensor_id;sensor_type;location;lat;lon;timestamp;P1;durP1;ratioP1;P2;durP2;ratioP2
22007;SDS011;11168;56.976;24.168;2023-07-29T00:00:04;13.65;;;11.30;;
22007;SDS011;11168;56.976;24.168;2023-07-29T00:02:33;16.38;;;11.98;;
22007;SDS011;11168;56.976;24.168;2023-07-29T00:05:00;16.90;;;11.60;;
22007;SDS011;11168;56.976;24.168;2023-07-29T00:07:26;13.45;;;10.80;;
22007;SDS011;11168;56.976;24.168;2023-07-29T00:09:53;14.18;;;10.88;;
22007;SDS011;11168;56.976;24.168;2023-07-29T00:12:20;13.65;;;10.60;;
22007;SDS011;11168;56.976;24.168;2023-07-29T00:14:47;11.75;;;9.63;;
22007;SDS011;11168;56.976;24.168;2023-07-29T00:17:14;9.63;;;8.63;;
22007;SDS011;11168;56.976;24.168;2023-07-29T00:19:41;10.00;;;9.00;;
22007;SDS011;11168;56.976;24.168;2023-07-29T00:22:08;10.68;;;9.40;;
22007;SDS011;11168;56.976;24.168;2023-07-29T00:24:35;10.40;;;9.30;;
22007;SDS011;11168;56.976;24.168;2023-07-29T00:27:02;12.88;;;9.65;;
22007;SDS011;11168;56.976;24.168;2023-07-29T00:29:29;11.15;;;9.52;;
22007;SDS011;11168;56.976;24.168;2023-07-29T00:31:56;13.77;;;8.93;;
22007;SDS011;11168;56.976;24.168;2023-07-29T00:34:23;11.93;;;9.05;;
22007;SDS011;11168;56.976;24.168;2023-07-29T00:36:50;10.38;;;9.18;;
22007;SDS011;11168;56.976;24.168;2023-07-29T00:39:17;10.45;;;9.32;;
22007;SDS011;11168;56.976;24.168;2023-07-29T00:41:45;11.45;;;10.00;;
22007;SDS011;11168;56.976;24.168;2023-07-29T00:44:12;11.82;;;9.57;;
22007;SDS011;11168;56.976;24.168;2023-07-29T00:46:39;10.15;;;9.02;;
22007;SDS011;11168;56.976;24.168;2023-07-29T00:49:08;10.75;;;9.50;;
22007;SDS011;11168;56.976;24.168;2023-07-29T00:51:35;14.20;;;10.02;;
22007;SDS011;11168;56.976;24.168;2023-07-29T00:54:02;11.65;;;10.43;;
22007;SDS011;11168;56.976;24.168;2023-07-29T00:56:29;12.55;;;10.40;;
22007;SDS011;11168;56.976;24.168;2023-07-29T00:58:57;10.43;;;9.43;;
22007;SDS011;11168;56.976;24.168;2023-07-29T01:01:28;12.07;;;10.43;;
22007;SDS011;11168;56.976;24.168;2023-07-29T01:03:56;11.60;;;10.00;;
22007;SDS011;11168;56.976;24.168;2023-07-29T01:09:08;13.50;;;11.00;;
22007;SDS011;11168;56.976;24.168;2023-07-29T01:12:06;12.15;;;10.50;;
22007;SDS011;11168;56.976;24.168;2023-07-29T01:14:55;11.93;;;10.50;;
22007;SDS011;11168;56.976;24.168;2023-07-29T01:17:55;13.00;;;10.97;;
22007;SDS011;11168;56.976;24.168;2023-07-29T01:20:29;13.05;;;11.60;;
22007;SDS011;11168;56.976;24.168;2023-07-29T01:23:00;13.50;;;12.07;;
22007;SDS011;11168;56.976;24.168;2023-07-29T01:25:27;13.38;;;12.07;;
22007;SDS011;11168;56.976;24.168;2023-07-29T01:27:54;13.40;;;11.73;;
22007;SDS011;11168;56.976;24.168;2023-07-29T01:30:22;15.20;;;13.05;;
22007;SDS011;11168;56.976;24.168;2023-07-29T01:33:09;15.40;;;12.80;;
22007;SDS011;11168;56.976;24.168;2023-07-29T01:40:43;19.55;;;13.65;;
22007;SDS011;11168;56.976;24.168;2023-07-29T01:43:10;17.83;;;15.00;;
22007;SDS011;11168;56.976;24.168;2023-07-29T01:45:38;18.80;;;13.57;;
22007;SDS011;11168;56.976;24.168;2023-07-29T01:48:06;17.98;;;14.27;;
22007;SDS011;11168;56.976;24.168;2023-07-29T01:50:34;17.30;;;14.07;;
22007;SDS011;11168;56.976;24.168;2023-07-29T01:53:01;16.55;;;13.68;;
22007;SDS011;11168;56.976;24.168;2023-07-29T01:55:28;14.57;;;13.18;;
22007;SDS011;11168;56.976;24.168;2023-07-29T01:57:55;15.98;;;13.18;;
22007;SDS011;11168;56.976;24.168;2023-07-29T02:00:22;16.58;;;13.77;;
22007;SDS011;11168;56.976;24.168;2023-07-29T02:02:49;16.45;;;14.48;;
22007;SDS011;11168;56.976;24.168;2023-07-29T02:05:16;18.05;;;13.52;;
22007;SDS011;11168;56.976;24.168;2023-07-29T02:07:43;18.10;;;13.75;;
22007;SDS011;11168;56.976;24.168;2023-07-29T02:10:10;21.08;;;14.90;;
22007;SDS011;11168;56.976;24.168;2023-07-29T02:12:37;17.23;;;14.27;;
22007;SDS011;11168;56.976;24.168;2023-07-29T02:15:04;16.77;;;14.40;;
22007;SDS011;11168;56.976;24.168;2023-07-29T02:17:32;20.08;;;14.15;;
22007;SDS011;11168;56.976;24.168;2023-07-29T02:19:59;19.58;;;14.45;;
22007;SDS011;11168;56.976;24.168;2023-07-29T02:22:26;15.73;;;13.52;;
22007;SDS011;11168;56.976;24.168;2023-07-29T02:24:53;17.13;;;14.85;;
22007;SDS011;11168;56.976;24.168;2023-07-29T02:27:20;16.95;;;14.63;;
22007;SDS011;11168;56.976;24.168;2023-07-29T02:29:47;17.23;;;14.50;;
22007;SDS011;11168;56.976;24.168;2023-07-29T02:32:14;18.23;;;15.60;;
22007;SDS011;11168;56.976;24.168;2023-07-29T02:34:41;19.90;;;16.05;;
22007;SDS011;11168;56.976;24.168;2023-07-29T02:37:08;23.83;;;16.23;;
22007;SDS011;11168;56.976;24.168;2023-07-29T02:39:36;21.40;;;15.45;;
22007;SDS011;11168;56.976;24.168;2023-07-29T02:42:03;19.85;;;16.20;;
22007;SDS011;11168;56.976;24.168;2023-07-29T02:44:30;18.02;;;15.85;;
22007;SDS011;11168;56.976;24.168;2023-07-29T02:46:57;21.30;;;15.98;;
22007;SDS011;11168;56.976;24.168;2023-07-29T02:49:24;22.33;;;15.77;;
22007;SDS011;11168;56.976;24.168;2023-07-29T02:51:51;23.73;;;16.88;;
22007;SDS011;11168;56.976;24.168;2023-07-29T02:54:18;22.95;;;17.23;;
22007;SDS011;11168;56.976;24.168;2023-07-29T02:56:45;18.88;;;15.48;;
22007;SDS011;11168;56.976;24.168;2023-07-29T02:59:12;18.52;;;16.00;;
22007;SDS011;11168;56.976;24.168;2023-07-29T03:01:39;19.02;;;15.77;;
22007;SDS011;11168;56.976;24.168;2023-07-29T03:04:06;19.02;;;15.25;;
22007;SDS011;11168;56.976;24.168;2023-07-29T03:06:34;18.83;;;15.60;;
22007;SDS011;11168;56.976;24.168;2023-07-29T03:09:01;19.33;;;15.93;;
22007;SDS011;11168;56.976;24.168;2023-07-29T03:11:28;20.13;;;15.68;;
22007;SDS011;11168;56.976;24.168;2023-07-29T03:13:57;22.30;;;17.30;;
22007;SDS011;11168;56.976;24.168;2023-07-29T03:16:24;19.23;;;16.77;;
22007;SDS011;11168;56.976;24.168;2023-07-29T03:18:51;21.55;;;17.75;;
22007;SDS011;11168;56.976;24.168;2023-07-29T03:21:18;26.00;;;17.80;;
22007;SDS011;11168;56.976;24.168;2023-07-29T03:23:45;22.23;;;17.65;;
22007;SDS011;11168;56.976;24.168;2023-07-29T03:26:12;19.38;;;16.42;;
22007;SDS011;11168;56.976;24.168;2023-07-29T03:28:42;21.00;;;17.60;;
22007;SDS011;11168;56.976;24.168;2023-07-29T03:31:10;23.23;;;16.70;;
22007;SDS011;11168;56.976;24.168;2023-07-29T03:33:37;21.63;;;17.00;;
22007;SDS011;11168;56.976;24.168;2023-07-29T03:36:04;19.27;;;17.08;;
22007;SDS011;11168;56.976;24.168;2023-07-29T03:38:31;21.13;;;17.65;;
22007;SDS011;11168;56.976;24.168;2023-07-29T03:41:01;21.92;;;17.05;;
22007;SDS011;11168;56.976;24.168;2023-07-29T03:43:29;22.05;;;16.50;;
22007;SDS011;11168;56.976;24.168;2023-07-29T03:45:56;22.00;;;16.50;;
22007;SDS011;11168;56.976;24.168;2023-07-29T03:48:23;21.90;;;16.90;;
22007;SDS011;11168;56.976;24.168;2023-07-29T03:50:50;19.75;;;17.40;;
22007;SDS011;11168;56.976;24.168;2023-07-29T03:53:17;21.08;;;15.75;;
22007;SDS011;11168;56.976;24.168;2023-07-29T03:55:44;19.02;;;15.68;;
22007;SDS011;11168;56.976;24.168;2023-07-29T03:58:12;22.10;;;15.55;;
22007;SDS011;11168;56.976;24.168;2023-07-29T04:00:39;19.98;;;15.98;;
22007;SDS011;11168;56.976;24.168;2023-07-29T04:03:06;16.52;;;14.55;;
22007;SDS011;11168;56.976;24.168;2023-07-29T04:05:33;19.52;;;16.08;;
22007;SDS011;11168;56.976;24.168;2023-07-29T04:08:00;17.95;;;15.95;;
22007;SDS011;11168;56.976;24.168;2023-07-29T04:10:27;17.35;;;15.43;;
22007;SDS011;11168;56.976;24.168;2023-07-29T04:12:54;20.77;;;16.67;;
22007;SDS011;11168;56.976;24.168;2023-07-29T04:15:21;16.95;;;15.15;;
22007;SDS011;11168;56.976;24.168;2023-07-29T04:17:48;20.15;;;15.90;;
22007;SDS011;11168;56.976;24.168;2023-07-29T04:20:15;16.63;;;13.95;;
22007;SDS011;11168;56.976;24.168;2023-07-29T04:22:42;18.00;;;15.73;;
22007;SDS011;11168;56.976;24.168;2023-07-29T04:25:09;21.65;;;15.75;;
22007;SDS011;11168;56.976;24.168;2023-07-29T04:27:36;17.17;;;15.18;;
22007;SDS011;11168;56.976;24.168;2023-07-29T04:30:03;18.25;;;14.90;;
22007;SDS011;11168;56.976;24.168;2023-07-29T04:32:31;19.70;;;15.05;;
22007;SDS011;11168;56.976;24.168;2023-07-29T04:34:58;18.25;;;15.05;;
22007;SDS011;11168;56.976;24.168;2023-07-29T04:37:25;20.05;;;14.98;;
22007;SDS011;11168;56.976;24.168;2023-07-29T04:39:52;18.45;;;15.40;;
22007;SDS011;11168;56.976;24.168;2023-07-29T04:42:19;17.17;;;15.38;;
22007;SDS011;11168;56.976;24.168;2023-07-29T04:44:46;18.52;;;15.43;;
22007;SDS011;11168;56.976;24.168;2023-07-29T04:47:13;22.40;;;14.98;;
22007;SDS011;11168;56.976;24.168;2023-07-29T04:49:40;16.38;;;13.63;;
22007;SDS011;11168;56.976;24.168;2023-07-29T04:52:07;16.58;;;13.75;;
22007;SDS011;11168;56.976;24.168;2023-07-29T04:54:34;17.88;;;13.23;;
22007;SDS011;11168;56.976;24.168;2023-07-29T04:57:01;16.52;;;12.77;;
22007;SDS011;11168;56.976;24.168;2023-07-29T04:59:28;14.88;;;12.35;;
22007;SDS011;11168;56.976;24.168;2023-07-29T05:01:55;18.90;;;12.18;;
22007;SDS011;11168;56.976;24.168;2023-07-29T05:04:22;15.15;;;11.68;;
22007;SDS011;11168;56.976;24.168;2023-07-29T05:06:50;17.30;;;11.70;;
22007;SDS011;11168;56.976;24.168;2023-07-29T05:09:17;14.52;;;12.85;;
22007;SDS011;11168;56.976;24.168;2023-07-29T05:11:46;14.30;;;11.73;;
22007;SDS011;11168;56.976;24.168;2023-07-29T05:14:13;15.20;;;12.32;;
22007;SDS011;11168;56.976;24.168;2023-07-29T05:16:41;17.13;;;12.57;;
22007;SDS011;11168;56.976;24.168;2023-07-29T05:19:09;15.23;;;11.98;;
22007;SDS011;11168;56.976;24.168;2023-07-29T05:21:36;16.25;;;11.98;;
22007;SDS011;11168;56.976;24.168;2023-07-29T05:24:04;14.48;;;11.18;;
22007;SDS011;11168;56.976;24.168;2023-07-29T05:26:31;14.32;;;11.63;;
22007;SDS011;11168;56.976;24.168;2023-07-29T05:28:59;13.63;;;11.68;;
22007;SDS011;11168;56.976;24.168;2023-07-29T05:31:26;15.73;;;12.27;;
22007;SDS011;11168;56.976;24.168;2023-07-29T05:33:53;13.88;;;12.25;;
22007;SDS011;11168;56.976;24.168;2023-07-29T05:36:20;20.45;;;12.15;;
22007;SDS011;11168;56.976;24.168;2023-07-29T05:38:47;17.80;;;12.05;;
22007;SDS011;11168;56.976;24.168;2023-07-29T05:41:13;19.95;;;11.77;;
22007;SDS011;11168;56.976;24.168;2023-07-29T05:43:40;16.15;;;10.98;;
22007;SDS011;11168;56.976;24.168;2023-07-29T05:46:09;14.98;;;11.50;;
22007;SDS011;11168;56.976;24.168;2023-07-29T05:48:37;12.30;;;10.95;;
22007;SDS011;11168;56.976;24.168;2023-07-29T05:51:04;13.93;;;11.48;;
22007;SDS011;11168;56.976;24.168;2023-07-29T05:53:32;14.25;;;10.45;;
22007;SDS011;11168;56.976;24.168;2023-07-29T05:55:59;14.82;;;10.05;;
22007;SDS011;11168;56.976;24.168;2023-07-29T05:58:26;13.10;;;9.75;;
22007;SDS011;11168;56.976;24.168;2023-07-29T06:00:53;13.48;;;9.40;;
22007;SDS011;11168;56.976;24.168;2023-07-29T06:03:21;10.85;;;9.80;;
22007;SDS011;11168;56.976;24.168;2023-07-29T06:05:48;12.23;;;9.73;;
22007;SDS011;11168;56.976;24.168;2023-07-29T06:08:19;13.00;;;10.00;;
22007;SDS011;11168;56.976;24.168;2023-07-29T06:10:47;11.82;;;9.75;;
22007;SDS011;11168;56.976;24.168;2023-07-29T06:13:14;13.18;;;9.73;;
22007;SDS011;11168;56.976;24.168;2023-07-29T06:15:41;11.73;;;9.73;;
22007;SDS011;11168;56.976;24.168;2023-07-29T06:18:08;12.68;;;10.75;;
22007;SDS011;11168;56.976;24.168;2023-07-29T06:20:35;12.18;;;9.68;;
22007;SDS011;11168;56.976;24.168;2023-07-29T06:23:03;9.95;;;8.93;;
22007;SDS011;11168;56.976;24.168;2023-07-29T06:25:30;12.88;;;9.80;;
22007;SDS011;11168;56.976;24.168;2023-07-29T06:27:57;15.15;;;8.90;;
22007;SDS011;11168;56.976;24.168;2023-07-29T06:30:24;10.38;;;8.90;;
22007;SDS011;11168;56.976;24.168;2023-07-29T06:32:52;10.68;;;9.25;;
22007;SDS011;11168;56.976;24.168;2023-07-29T06:35:19;10.43;;;8.93;;
22007;SDS011;11168;56.976;24.168;2023-07-29T06:37:46;13.05;;;9.02;;
22007;SDS011;11168;56.976;24.168;2023-07-29T06:40:13;8.20;;;7.38;;
22007;SDS011;11168;56.976;24.168;2023-07-29T06:42:41;11.25;;;7.18;;
22007;SDS011;11168;56.976;24.168;2023-07-29T06:45:08;9.73;;;7.30;;
22007;SDS011;11168;56.976;24.168;2023-07-29T06:47:37;9.15;;;7.38;;
22007;SDS011;11168;56.976;24.168;2023-07-29T06:50:05;11.45;;;7.03;;
22007;SDS011;11168;56.976;24.168;2023-07-29T06:52:32;9.18;;;7.13;;
22007;SDS011;11168;56.976;24.168;2023-07-29T06:54:59;10.98;;;6.80;;
22007;SDS011;11168;56.976;24.168;2023-07-29T06:57:28;10.05;;;7.03;;
22007;SDS011;11168;56.976;24.168;2023-07-29T06:59:56;10.27;;;7.00;;
22007;SDS011;11168;56.976;24.168;2023-07-29T07:02:25;11.13;;;6.93;;
22007;SDS011;11168;56.976;24.168;2023-07-29T07:04:53;7.63;;;6.32;;
22007;SDS011;11168;56.976;24.168;2023-07-29T07:07:22;9.60;;;6.43;;
22007;SDS011;11168;56.976;24.168;2023-07-29T07:09:49;6.70;;;5.93;;
22007;SDS011;11168;56.976;24.168;2023-07-29T07:12:16;7.72;;;6.18;;
22007;SDS011;11168;56.976;24.168;2023-07-29T07:14:47;6.90;;;5.20;;
22007;SDS011;11168;56.976;24.168;2023-07-29T07:17:14;12.50;;;5.47;;
22007;SDS011;11168;56.976;24.168;2023-07-29T07:19:41;7.00;;;5.00;;
22007;SDS011;11168;56.976;24.168;2023-07-29T07:22:09;9.38;;;4.93;;
22007;SDS011;11168;56.976;24.168;2023-07-29T07:24:36;7.32;;;5.07;;
22007;SDS011;11168;56.976;24.168;2023-07-29T07:27:03;9.38;;;4.82;;
22007;SDS011;11168;56.976;24.168;2023-07-29T07:29:33;9.30;;;4.18;;
22007;SDS011;11168;56.976;24.168;2023-07-29T07:32:00;5.22;;;4.20;;
22007;SDS011;11168;56.976;24.168;2023-07-29T07:34:27;5.75;;;4.32;;
22007;SDS011;11168;56.976;24.168;2023-07-29T07:36:54;5.47;;;4.68;;
22007;SDS011;11168;56.976;24.168;2023-07-29T07:39:22;9.45;;;4.57;;
22007;SDS011;11168;56.976;24.168;2023-07-29T07:41:49;9.75;;;5.10;;
22007;SDS011;11168;56.976;24.168;2023-07-29T07:44:16;7.22;;;4.82;;
22007;SDS011;11168;56.976;24.168;2023-07-29T07:46:44;6.25;;;4.50;;
22007;SDS011;11168;56.976;24.168;2023-07-29T07:49:11;7.82;;;4.18;;
22007;SDS011;11168;56.976;24.168;2023-07-29T07:51:39;8.52;;;4.63;;
22007;SDS011;11168;56.976;24.168;2023-07-29T07:54:06;6.60;;;4.00;;
22007;SDS011;11168;56.976;24.168;2023-07-29T07:56:33;7.95;;;4.35;;
22007;SDS011;11168;56.976;24.168;2023-07-29T07:59:01;6.90;;;4.60;;
22007;SDS011;11168;56.976;24.168;2023-07-29T08:01:33;6.80;;;4.00;;
22007;SDS011;11168;56.976;24.168;2023-07-29T08:04:04;7.75;;;3.70;;
22007;SDS011;11168;56.976;24.168;2023-07-29T08:06:32;7.72;;;3.70;;
22007;SDS011;11168;56.976;24.168;2023-07-29T08:09:00;6.03;;;3.60;;
22007;SDS011;11168;56.976;24.168;2023-07-29T08:11:28;5.18;;;3.85;;
22007;SDS011;11168;56.976;24.168;2023-07-29T08:13:55;6.57;;;4.07;;
22007;SDS011;11168;56.976;24.168;2023-07-29T08:16:22;6.38;;;4.03;;
22007;SDS011;11168;56.976;24.168;2023-07-29T08:18:49;4.97;;;3.92;;
22007;SDS011;11168;56.976;24.168;2023-07-29T08:21:17;5.90;;;3.72;;
22007;SDS011;11168;56.976;24.168;2023-07-29T08:23:44;5.10;;;3.50;;
22007;SDS011;11168;56.976;24.168;2023-07-29T08:26:11;5.15;;;3.20;;
22007;SDS011;11168;56.976;24.168;2023-07-29T08:28:38;3.33;;;3.03;;
22007;SDS011;11168;56.976;24.168;2023-07-29T08:31:06;3.80;;;3.50;;
22007;SDS011;11168;56.976;24.168;2023-07-29T08:33:34;3.45;;;3.15;;
22007;SDS011;11168;56.976;24.168;2023-07-29T08:36:02;5.15;;;3.00;;
22007;SDS011;11168;56.976;24.168;2023-07-29T08:38:30;4.18;;;2.53;;
22007;SDS011;11168;56.976;24.168;2023-07-29T08:41:16;4.25;;;2.92;;
22007;SDS011;11168;56.976;24.168;2023-07-29T08:43:56;4.35;;;2.97;;
22007;SDS011;11168;56.976;24.168;2023-07-29T08:46:38;4.88;;;2.80;;
22007;SDS011;11168;56.976;24.168;2023-07-29T08:49:07;4.75;;;2.75;;
22007;SDS011;11168;56.976;24.168;2023-07-29T08:51:34;6.15;;;2.22;;
22007;SDS011;11168;56.976;24.168;2023-07-29T08:54:03;2.60;;;2.40;;
22007;SDS011;11168;56.976;24.168;2023-07-29T08:56:30;3.60;;;2.70;;
22007;SDS011;11168;56.976;24.168;2023-07-29T08:58:58;4.78;;;2.50;;
22007;SDS011;11168;56.976;24.168;2023-07-29T09:01:26;4.63;;;3.10;;
22007;SDS011;11168;56.976;24.168;2023-07-29T09:03:54;5.78;;;3.35;;
22007;SDS011;11168;56.976;24.168;2023-07-29T09:06:21;3.92;;;2.88;;
22007;SDS011;11168;56.976;24.168;2023-07-29T09:08:51;5.15;;;3.22;;
22007;SDS011;11168;56.976;24.168;2023-07-29T09:11:20;5.03;;;2.90;;
22007;SDS011;11168;56.976;24.168;2023-07-29T09:13:48;4.05;;;3.40;;
22007;SDS011;11168;56.976;24.168;2023-07-29T09:16:15;4.72;;;3.42;;
22007;SDS011;11168;56.976;24.168;2023-07-29T09:18:42;4.03;;;3.30;;
22007;SDS011;11168;56.976;24.168;2023-07-29T09:21:11;3.55;;;3.15;;
22007;SDS011;11168;56.976;24.168;2023-07-29T09:23:43;4.07;;;3.10;;
22007;SDS011;11168;56.976;24.168;2023-07-29T09:26:11;3.90;;;2.97;;
22007;SDS011;11168;56.976;24.168;2023-07-29T09:28:39;5.40;;;2.85;;
22007;SDS011;11168;56.976;24.168;2023-07-29T09:31:07;6.05;;;3.10;;
22007;SDS011;11168;56.976;24.168;2023-07-29T09:36:15;3.20;;;2.90;;
22007;SDS011;11168;56.976;24.168;2023-07-29T09:38:43;3.92;;;2.20;;
22007;SDS011;11168;56.976;24.168;2023-07-29T09:41:12;2.35;;;2.15;;
22007;SDS011;11168;56.976;24.168;2023-07-29T09:43:41;4.28;;;2.33;;
22007;SDS011;11168;56.976;24.168;2023-07-29T09:46:08;3.05;;;2.05;;
22007;SDS011;11168;56.976;24.168;2023-07-29T09:48:37;1.70;;;1.60;;
22007;SDS011;11168;56.976;24.168;2023-07-29T09:51:11;1.63;;;1.30;;
22007;SDS011;11168;56.976;24.168;2023-07-29T09:53:43;2.05;;;1.20;;
22007;SDS011;11168;56.976;24.168;2023-07-29T09:56:14;1.77;;;1.30;;
22007;SDS011;11168;56.976;24.168;2023-07-29T09:58:45;1.55;;;1.40;;
22007;SDS011;11168;56.976;24.168;2023-07-29T10:01:15;3.67;;;1.50;;
22007;SDS011;11168;56.976;24.168;2023-07-29T10:03:42;2.25;;;1.20;;
22007;SDS011;11168;56.976;24.168;2023-07-29T10:06:10;3.08;;;1.40;;
22007;SDS011;11168;56.976;24.168;2023-07-29T10:08:38;2.63;;;1.48;;
22007;SDS011;11168;56.976;24.168;2023-07-29T10:11:07;2.35;;;1.40;;
22007;SDS011;11168;56.976;24.168;2023-07-29T10:13:35;2.10;;;1.30;;
22007;SDS011;11168;56.976;24.168;2023-07-29T10:16:04;1.33;;;1.23;;
22007;SDS011;11168;56.976;24.168;2023-07-29T10:18:32;1.23;;;1.13;;
22007;SDS011;11168;56.976;24.168;2023-07-29T10:21:00;2.65;;;1.58;;
22007;SDS011;11168;56.976;24.168;2023-07-29T10:23:35;1.60;;;1.50;;
22007;SDS011;11168;56.976;24.168;2023-07-29T10:26:09;1.90;;;1.45;;
22007;SDS011;11168;56.976;24.168;2023-07-29T10:28:41;1.50;;;1.40;;
22007;SDS011;11168;56.976;24.168;2023-07-29T10:31:15;2.03;;;1.58;;
22007;SDS011;11168;56.976;24.168;2023-07-29T10:33:43;2.78;;;1.50;;
22007;SDS011;11168;56.976;24.168;2023-07-29T10:36:11;1.67;;;1.40;;
22007;SDS011;11168;56.976;24.168;2023-07-29T10:38:39;2.95;;;1.38;;
22007;SDS011;11168;56.976;24.168;2023-07-29T10:41:07;1.73;;;1.25;;
22007;SDS011;11168;56.976;24.168;2023-07-29T10:43:35;2.03;;;1.40;;
22007;SDS011;11168;56.976;24.168;2023-07-29T10:46:14;2.23;;;1.70;;
22007;SDS011;11168;56.976;24.168;2023-07-29T10:48:52;3.38;;;1.50;;
22007;SDS011;11168;56.976;24.168;2023-07-29T10:51:30;1.83;;;1.55;;
22007;SDS011;11168;56.976;24.168;2023-07-29T10:56:42;1.65;;;1.42;;
22007;SDS011;11168;56.976;24.168;2023-07-29T11:01:49;2.13;;;1.30;;
22007;SDS011;11168;56.976;24.168;2023-07-29T11:09:43;1.90;;;1.40;;
22007;SDS011;11168;56.976;24.168;2023-07-29T11:17:53;2.00;;;1.27;;
22007;SDS011;11168;56.976;24.168;2023-07-29T11:20:25;1.77;;;1.27;;
22007;SDS011;11168;56.976;24.168;2023-07-29T11:22:53;1.30;;;1.20;;
22007;SDS011;11168;56.976;24.168;2023-07-29T11:25:22;4.07;;;1.30;;
22007;SDS011;11168;56.976;24.168;2023-07-29T11:27:51;1.35;;;1.20;;
22007;SDS011;11168;56.976;24.168;2023-07-29T11:30:20;1.40;;;1.30;;
22007;SDS011;11168;56.976;24.168;2023-07-29T11:32:49;1.35;;;1.20;;
22007;SDS011;11168;56.976;24.168;2023-07-29T11:35:17;2.03;;;1.50;;
22007;SDS011;11168;56.976;24.168;2023-07-29T11:37:46;1.65;;;1.25;;
22007;SDS011;11168;56.976;24.168;2023-07-29T11:40:15;1.75;;;1.30;;
22007;SDS011;11168;56.976;24.168;2023-07-29T11:42:47;2.10;;;1.10;;
22007;SDS011;11168;56.976;24.168;2023-07-29T11:45:16;2.38;;;1.17;;
22007;SDS011;11168;56.976;24.168;2023-07-29T11:47:44;1.10;;;1.00;;
22007;SDS011;11168;56.976;24.168;2023-07-29T11:50:13;1.25;;;1.15;;
22007;SDS011;11168;56.976;24.168;2023-07-29T11:52:41;1.30;;;1.20;;
22007;SDS011;11168;56.976;24.168;2023-07-29T11:55:11;2.47;;;1.58;;
22007;SDS011;11168;56.976;24.168;2023-07-29T11:57:42;2.55;;;1.10;;
22007;SDS011;11168;56.976;24.168;2023-07-29T12:00:10;1.30;;;1.20;;
22007;SDS011;11168;56.976;24.168;2023-07-29T12:02:39;1.70;;;1.15;;
22007;SDS011;11168;56.976;24.168;2023-07-29T12:05:08;1.33;;;1.23;;
22007;SDS011;11168;56.976;24.168;2023-07-29T12:07:38;1.95;;;0.90;;
22007;SDS011;11168;56.976;24.168;2023-07-29T12:10:06;1.30;;;1.20;;
22007;SDS011;11168;56.976;24.168;2023-07-29T12:12:33;2.80;;;1.10;;
22007;SDS011;11168;56.976;24.168;2023-07-29T12:15:12;3.30;;;1.10;;
22007;SDS011;11168;56.976;24.168;2023-07-29T12:17:40;2.88;;;1.23;;
22007;SDS011;11168;56.976;24.168;2023-07-29T12:20:09;1.63;;;1.10;;
22007;SDS011;11168;56.976;24.168;2023-07-29T12:22:37;1.73;;;0.80;;
22007;SDS011;11168;56.976;24.168;2023-07-29T12:25:04;1.90;;;1.00;;
22007;SDS011;11168;56.976;24.168;2023-07-29T12:27:32;1.80;;;0.90;;
22007;SDS011;11168;56.976;24.168;2023-07-29T12:30:00;1.73;;;1.10;;
22007;SDS011;11168;56.976;24.168;2023-07-29T12:32:30;1.20;;;0.93;;
22007;SDS011;11168;56.976;24.168;2023-07-29T12:34:57;1.88;;;1.20;;
22007;SDS011;11168;56.976;24.168;2023-07-29T12:37:31;0.80;;;0.80;;
22007;SDS011;11168;56.976;24.168;2023-07-29T12:39:59;1.33;;;0.90;;
22007;SDS011;11168;56.976;24.168;2023-07-29T12:42:26;0.82;;;0.82;;
22007;SDS011;11168;56.976;24.168;2023-07-29T12:44:53;1.38;;;0.90;;
22007;SDS011;11168;56.976;24.168;2023-07-29T12:47:20;2.28;;;0.95;;
22007;SDS011;11168;56.976;24.168;2023-07-29T12:49:47;1.88;;;1.00;;
22007;SDS011;11168;56.976;24.168;2023-07-29T12:52:14;1.38;;;0.98;;
22007;SDS011;11168;56.976;24.168;2023-07-29T12:54:41;3.40;;;1.00;;
22007;SDS011;11168;56.976;24.168;2023-07-29T12:57:10;3.40;;;1.10;;
22007;SDS011;11168;56.976;24.168;2023-07-29T12:59:37;1.50;;;1.00;;
22007;SDS011;11168;56.976;24.168;2023-07-29T13:02:05;1.15;;;1.00;;
22007;SDS011;11168;56.976;24.168;2023-07-29T13:04:33;1.58;;;0.90;;
22007;SDS011;11168;56.976;24.168;2023-07-29T13:07:00;1.10;;;1.00;;
22007;SDS011;11168;56.976;24.168;2023-07-29T13:09:27;1.05;;;0.90;;
22007;SDS011;11168;56.976;24.168;2023-07-29T13:11:54;1.10;;;1.00;;
22007;SDS011;11168;56.976;24.168;2023-07-29T13:14:21;1.23;;;0.85;;
22007;SDS011;11168;56.976;24.168;2023-07-29T13:16:48;0.93;;;0.80;;
22007;SDS011;11168;56.976;24.168;2023-07-29T13:19:15;3.22;;;0.85;;
22007;SDS011;11168;56.976;24.168;2023-07-29T13:21:44;2.03;;;1.20;;
22007;SDS011;11168;56.976;24.168;2023-07-29T13:24:11;2.03;;;0.93;;
22007;SDS011;11168;56.976;24.168;2023-07-29T13:26:38;1.15;;;0.85;;
22007;SDS011;11168;56.976;24.168;2023-07-29T13:29:05;1.00;;;0.90;;
22007;SDS011;11168;56.976;24.168;2023-07-29T13:31:35;1.65;;;0.82;;
22007;SDS011;11168;56.976;24.168;2023-07-29T13:34:02;0.88;;;0.80;;
22007;SDS011;11168;56.976;24.168;2023-07-29T13:36:29;0.80;;;0.70;;
22007;SDS011;11168;56.976;24.168;2023-07-29T13:38:57;1.30;;;0.90;;
22007;SDS011;11168;56.976;24.168;2023-07-29T13:41:23;2.28;;;0.90;;
22007;SDS011;11168;56.976;24.168;2023-07-29T13:43:50;1.52;;;0.90;;
22007;SDS011;11168;56.976;24.168;2023-07-29T13:46:17;1.25;;;0.73;;
22007;SDS011;11168;56.976;24.168;2023-07-29T13:48:47;1.02;;;0.80;;
22007;SDS011;11168;56.976;24.168;2023-07-29T13:51:14;1.58;;;0.77;;
22007;SDS011;11168;56.976;24.168;2023-07-29T13:53:41;3.33;;;0.88;;
22007;SDS011;11168;56.976;24.168;2023-07-29T13:56:08;1.23;;;0.90;;
22007;SDS011;11168;56.976;24.168;2023-07-29T13:58:35;0.95;;;0.70;;
22007;SDS011;11168;56.976;24.168;2023-07-29T14:01:02;1.98;;;0.77;;
22007;SDS011;11168;56.976;24.168;2023-07-29T14:03:29;0.80;;;0.80;;
22007;SDS011;11168;56.976;24.168;2023-07-29T14:05:57;0.80;;;0.60;;
22007;SDS011;11168;56.976;24.168;2023-07-29T14:08:24;0.90;;;0.80;;
22007;SDS011;11168;56.976;24.168;2023-07-29T14:10:51;1.80;;;0.90;;
22007;SDS011;11168;56.976;24.168;2023-07-29T14:13:18;0.98;;;0.80;;
22007;SDS011;11168;56.976;24.168;2023-07-29T14:15:45;0.80;;;0.70;;
22007;SDS011;11168;56.976;24.168;2023-07-29T14:18:12;0.65;;;0.65;;
22007;SDS011;11168;56.976;24.168;2023-07-29T14:20:39;0.70;;;0.70;;
22007;SDS011;11168;56.976;24.168;2023-07-29T14:23:07;0.88;;;0.68;;
22007;SDS011;11168;56.976;24.168;2023-07-29T14:25:34;1.38;;;0.70;;
22007;SDS011;11168;56.976;24.168;2023-07-29T14:28:00;2.13;;;0.75;;
22007;SDS011;11168;56.976;24.168;2023-07-29T14:30:27;1.95;;;0.75;;
22007;SDS011;11168;56.976;24.168;2023-07-29T14:32:54;0.73;;;0.68;;
22007;SDS011;11168;56.976;24.168;2023-07-29T14:35:22;1.23;;;0.73;;
22007;SDS011;11168;56.976;24.168;2023-07-29T14:37:49;1.17;;;0.80;;
22007;SDS011;11168;56.976;24.168;2023-07-29T14:40:16;3.22;;;0.70;;
22007;SDS011;11168;56.976;24.168;2023-07-29T14:42:43;0.85;;;0.60;;
22007;SDS011;11168;56.976;24.168;2023-07-29T14:45:10;1.30;;;0.68;;
22007;SDS011;11168;56.976;24.168;2023-07-29T14:47:38;1.65;;;0.60;;
22007;SDS011;11168;56.976;24.168;2023-07-29T14:50:05;3.10;;;0.70;;
22007;SDS011;11168;56.976;24.168;2023-07-29T14:52:33;1.10;;;0.52;;
22007;SDS011;11168;56.976;24.168;2023-07-29T14:55:00;1.13;;;0.55;;